METAR Data
IDs: Format: Raw Decoded Include TAF

Data at: 1341 UTC 14 Dec 2019

PANW 141256Z AUTO 08006KT 10SM OVC045 M01/M01 A2941 RMK AO2 SLP967 T10061011 FZRANO
PANW 141156Z AUTO 10007KT 10SM OVC043 00/M01 A2943 RMK AO2 SLP973 70004 T00001011 10006 21022 58004 FZRANO
PANW 141056Z AUTO 08004KT 10SM FEW043 OVC055 M01/M01 A2944 RMK AO2 SLP975 T10111011 FZRANO
PANW 140956Z AUTO 04003KT 10SM OVC055 M02/M02 A2945 RMK AO2 SLP981 T10221022 FZRANO
PANW 140901Z AUTO 07003KT 3SM BR SCT002 M02/M02 A2944 RMK AO2 FZRANO
PANW 140858Z AUTO 06003KT 1 1/2SM BR SCT002 M02/M02 A2944 RMK AO2 FZRANO
PANW 140856Z AUTO 05003KT 1SM BR BKN002 M02/M02 A2944 RMK AO2 SLP977 T10171017 400061056 55001 FZRANO
PANW 140832Z AUTO 05005KT 1/2SM FZFG BKN002 OVC060 M02/M02 A2944 RMK AO2 FZRANO
PANW 140807Z AUTO 07003KT 1/4SM FZFG OVC002 M01/M01 A2944 RMK AO2 FZRANO
PANW 140756Z AUTO 07004KT 1/2SM FZFG OVC002 M01/M01 A2943 RMK AO2 SLP976 T10111011 FZRANO
PANW 140701Z AUTO 10005KT 1/4SM FG OVC002 00/00 A2944 RMK AO2 FZRANO
PANW 140656Z AUTO 10005KT 3/4SM BR OVC002 00/00 A2944 RMK AO2 SLP978 T00000000 FZRANO
PANW 140651Z AUTO 12005KT 1 3/4SM BR BKN002 OVC028 00/00 A2944 RMK AO2 FZRANO
PANW 140650Z AUTO 11005KT 2 1/2SM BR BKN002 OVC028 00/00 A2944 RMK AO2 FZRANO
PANW 140643Z AUTO 11005KT 9SM BKN004 BKN028 OVC065 00/00 A2944 RMK AO2 FZRANO
PANW 140629Z AUTO 10004KT 10SM FEW004 BKN028 OVC065 01/01 A2945 RMK AO2 FZRANO
PANW 140556Z AUTO 09004KT 10SM BKN047 OVC055 01/01 A2945 RMK AO2 UPE02RAB02E04 SLP979 P0000 60004 T00060006 10006 21017 55001 FZRANO
PANW 140519Z AUTO 05003KT 10SM SCT005 BKN036 OVC070 00/00 A2945 RMK AO2 UPE02RAB02E04 P0000 FZRANO
PANW 140505Z AUTO 00000KT 10SM BKN005 OVC036 01/00 A2944 RMK AO2 UPE02RAB02E04 CIG 002V008 P0000 FZRANO
PANW 140456Z AUTO 02003KT 10SM UP BKN007 BKN015 OVC038 01/00 A2944 RMK AO2 RAE52UPB52 CIG 003V009 SLP978 P0001 T00060000 FZRANO
PANW 140448Z AUTO 02004KT 10SM -RA BKN007 BKN016 OVC038 00/00 A2945 RMK AO2 CIG 004V009 P0001 FZRANO
PANW 140425Z AUTO 03004KT 10SM -RA FEW009 BKN026 OVC050 01/00 A2945 RMK AO2 P0001 FZRANO
PANW 140420Z AUTO 03004KT 10SM -RA FEW014 BKN037 OVC050 01/00 A2945 RMK AO2 P0001 FZRANO
PANW 140356Z AUTO 03004KT 10SM -RA BKN016 OVC023 01/00 A2945 RMK AO2 UPE39RAB39 SLP979 P0003 T00060000 FZRANO
PANW 140303Z AUTO 06005KT 9SM UP SCT005 SCT010 OVC019 M01/M01 A2945 RMK AO2 P0000 FZRANO
PANW 140256Z AUTO 05005KT 6SM UP BR BKN005 BKN010 OVC027 M01/M01 A2945 RMK AO2 UPB50SNE50 CIG 003V007 SLP980 P0000 60000 T10061011 53004 FZRANO
PANW 140156Z AUTO 02005KT 9SM -SN OVC005 M02/M02 A2945 RMK AO2 SNB40 SLP980 P0000 T10171022 FZRANO
PANW 140056Z AUTO 03006KT 10SM OVC005 M01/M02 A2944 RMK AO2 UPE05 SLP977 P0000 T10111022 FZRANO
PANW 140039Z AUTO 03007KT 10SM BKN005 OVC026 M02/M02 A2944 RMK AO2 UPE05 P0000 FZRANO
PANW 140014Z AUTO 03007KT 10SM FEW005 SCT020 OVC026 M01/M02 A2944 RMK AO2 UPE05 P0000 FZRANO
PANW 140004Z AUTO 03006KT 10SM UP BKN019 BKN028 OVC036 M01/M02 A2944 RMK AO2 P0000 FZRANO
PANW 132356Z AUTO 04005KT 7SM UP SCT023 BKN032 OVC042 M01/M02 A2944 RMK AO2 UPB50 SLP977 P0000 60000 T10111022 11011 21050 51011 FZRANO
PANW 132318Z AUTO 03005KT 10SM OVC031 M02/M03 A2943 RMK AO2 FZRANO
PANW 132256Z AUTO 03005KT 10SM OVC029 M02/M04 A2943 RMK AO2 SLP973 T10221039 FZRANO
PANW 132251Z AUTO 03005KT 10SM OVC029 M02/M04 A2942 RMK AO2 FZRANO
PANW 132156Z AUTO 03009KT 10SM BKN049 OVC060 M03/M05 A2941 RMK AO2 SLP966 T10331050 FZRANO
PANW 132056Z AUTO 02008KT 10SM FEW045 M04/M06 A2939 RMK AO2 SLP959 T10441061 53022 FZRANO
PANW 131956Z AUTO 01006KT 10SM BKN050 M04/M06 A2936 RMK AO2 SLP952 T10441061 FZRANO
PANW 131856Z AUTO 02008KT 10SM OVC044 M04/M07 A2934 RMK AO2 SLP944 T10441067 FZRANO
PANW 131756Z AUTO 01008KT 10SM OVC070 M05/M07 A2932 RMK AO2 SLP937 60000 T10501067 11044 21056 53018 FZRANO
PANW 131556Z AUTO 01007KT 10SM BKN055 BKN080 M05/M07 A2928 RMK AO2 SLP924 T10501067 FZRANO
PANW 131456Z AUTO 36010KT 10SM FEW050 BKN060 OVC085 M06/M07 A2927 RMK AO2 SLP919 60000 T10561072 53007 FZRANO
PANW 131356Z AUTO 01010KT 10SM SCT060 BKN070 M05/M07 A2926 RMK AO2 SNB04E49 SLP915 P0000 T10501067 FZRANO
PANW 131256Z AUTO 35009KT 10SM OVC070 M04/M07 A2925 RMK AO2 SNB38E50 SLP912 P0000 T10441067 FZRANO
PANW 131156Z AUTO 35007KT 10SM BKN050 OVC090 M04/M06 A2925 RMK AO2 SLP912 T10441061 11033 21050 53015 FZRANO
PANW 131056Z AUTO 36008KT 10SM BKN055 BKN075 OVC090 M04/M06 A2923 RMK AO2 SLP905 T10391061 FZRANO
PANW 130956Z AUTO 36008KT 10SM OVC070 M04/M07 A2922 RMK AO2 SLP902 T10441067 FZRANO
PANW 130856Z AUTO 01010KT 10SM OVC070 M05/M07 A2920 RMK AO2 SLP897 T10501067 410111050 53008 FZRANO
PANW 130756Z AUTO 36011KT 10SM BKN070 M04/M07 A2919 RMK AO2 SLP892 T10441067 FZRANO
PANW 130656Z AUTO 01012KT 10SM CLR M04/M06 A2917 RMK AO2 SLP888 T10391061 FZRANO
PANW 130556Z AUTO 01010KT 10SM SCT065 BKN110 M03/M06 A2918 RMK AO2 SLP889 T10331061 11022 21033 52001 FZRANO
PANW 130456Z AUTO 36013KT 10SM SCT075 M03/M06 A2917 RMK AO2 SLP886 T10281056 FZRANO
PANW 130356Z AUTO 36012KT 10SM OVC070 M02/M05 A2918 RMK AO2 SLP890 T10221050 FZRANO
PANW 130256Z AUTO 36012KT 10SM OVC110 M02/M05 A2918 RMK AO2 SLP887 T10221050 53001 FZRANO
PANW 130156Z AUTO 36010KT 10SM OVC110 M02/M05 A2917 RMK AO2 SLP885 T10221050 FZRANO